sensor_id;sensor_type;location;lat;lon;timestamp;temperature;humidity
36924;DHT22;22841;50.252;18.688;2022-09-09T00:01:08;16.30;99.90
36924;DHT22;22841;50.252;18.688;2022-09-09T00:09:00;16.30;99.90
36924;DHT22;22841;50.252;18.688;2022-09-09T00:11:43;16.30;99.90
36924;DHT22;22841;50.252;18.688;2022-09-09T00:14:48;16.30;99.90
36924;DHT22;22841;50.252;18.688;2022-09-09T00:17:35;16.30;99.90
36924;DHT22;22841;50.252;18.688;2022-09-09T00:20:32;16.30;99.90
36924;DHT22;22841;50.252;18.688;2022-09-09T00:23:04;16.30;99.90
36924;DHT22;22841;50.252;18.688;2022-09-09T00:25:55;16.20;99.90
36924;DHT22;22841;50.252;18.688;2022-09-09T00:28:26;16.20;99.90
36924;DHT22;22841;50.252;18.688;2022-09-09T00:30:52;16.20;99.90
36924;DHT22;22841;50.252;18.688;2022-09-09T00:33:23;16.20;99.90
36924;DHT22;22841;50.252;18.688;2022-09-09T00:35:57;16.10;99.90
36924;DHT22;22841;50.252;18.688;2022-09-09T00:38:31;16.10;99.90
36924;DHT22;22841;50.252;18.688;2022-09-09T00:41:13;16.10;99.90
36924;DHT22;22841;50.252;18.688;2022-09-09T00:43:41;16.10;99.90
36924;DHT22;22841;50.252;18.688;2022-09-09T00:46:22;16.10;99.90
36924;DHT22;22841;50.252;18.688;2022-09-09T01:02:18;16.10;99.90
36924;DHT22;22841;50.252;18.688;2022-09-09T01:04:48;16.10;99.90
36924;DHT22;22841;50.252;18.688;2022-09-09T01:07:18;16.10;99.90
36924;DHT22;22841;50.252;18.688;2022-09-09T01:09:57;16.00;99.90
36924;DHT22;22841;50.252;18.688;2022-09-09T01:12:38;16.00;99.90
36924;DHT22;22841;50.252;18.688;2022-09-09T01:15:10;16.00;99.90
36924;DHT22;22841;50.252;18.688;2022-09-09T01:17:52;16.00;99.90
36924;DHT22;22841;50.252;18.688;2022-09-09T01:28:34;15.90;99.90
36924;DHT22;22841;50.252;18.688;2022-09-09T01:31:04;15.80;99.90
36924;DHT22;22841;50.252;18.688;2022-09-09T01:33:31;15.90;99.90
36924;DHT22;22841;50.252;18.688;2022-09-09T01:36:03;15.90;99.90
36924;DHT22;22841;50.252;18.688;2022-09-09T01:38:31;15.90;99.90
36924;DHT22;22841;50.252;18.688;2022-09-09T01:41:00;15.80;99.90
36924;DHT22;22841;50.252;18.688;2022-09-09T01:43:27;15.90;99.90
36924;DHT22;22841;50.252;18.688;2022-09-09T01:45:55;15.90;99.90
36924;DHT22;22841;50.252;18.688;2022-09-09T01:48:23;15.90;99.90
36924;DHT22;22841;50.252;18.688;2022-09-09T01:50:52;15.80;99.90
36924;DHT22;22841;50.252;18.688;2022-09-09T01:53:20;15.70;99.90
36924;DHT22;22841;50.252;18.688;2022-09-09T02:04:27;15.70;99.90
36924;DHT22;22841;50.252;18.688;2022-09-09T02:07:00;15.60;99.90
36924;DHT22;22841;50.252;18.688;2022-09-09T02:09:26;15.60;99.90
36924;DHT22;22841;50.252;18.688;2022-09-09T02:12:14;15.50;99.90
36924;DHT22;22841;50.252;18.688;2022-09-09T02:14:49;15.60;99.90
36924;DHT22;22841;50.252;18.688;2022-09-09T02:17:23;15.60;99.90
36924;DHT22;22841;50.252;18.688;2022-09-09T02:20:04;15.50;99.90
36924;DHT22;22841;50.252;18.688;2022-09-09T02:22:32;15.50;99.90
36924;DHT22;22841;50.252;18.688;2022-09-09T02:25:00;15.40;99.90
36924;DHT22;22841;50.252;18.688;2022-09-09T02:27:27;15.40;99.90
36924;DHT22;22841;50.252;18.688;2022-09-09T02:29:54;15.40;99.90
36924;DHT22;22841;50.252;18.688;2022-09-09T02:32:23;15.40;99.90
36924;DHT22;22841;50.252;18.688;2022-09-09T02:34:53;15.30;99.90
36924;DHT22;22841;50.252;18.688;2022-09-09T02:37:22;15.30;99.90
36924;DHT22;22841;50.252;18.688;2022-09-09T02:39:52;15.30;99.90
36924;DHT22;22841;50.252;18.688;2022-09-09T02:42:18;15.30;99.90
36924;DHT22;22841;50.252;18.688;2022-09-09T02:44:45;15.30;99.90
36924;DHT22;22841;50.252;18.688;2022-09-09T02:47:20;15.30;99.90
36924;DHT22;22841;50.252;18.688;2022-09-09T02:50:15;15.30;99.90
36924;DHT22;22841;50.252;18.688;2022-09-09T02:57:55;15.30;99.90
36924;DHT22;22841;50.252;18.688;2022-09-09T03:00:25;15.20;99.90
36924;DHT22;22841;50.252;18.688;2022-09-09T03:02:52;15.20;99.90
36924;DHT22;22841;50.252;18.688;2022-09-09T03:05:20;15.20;99.90
36924;DHT22;22841;50.252;18.688;2022-09-09T03:07:47;15.20;99.90
36924;DHT22;22841;50.252;18.688;2022-09-09T03:10:13;15.20;99.90
36924;DHT22;22841;50.252;18.688;2022-09-09T03:12:39;15.20;99.90
36924;DHT22;22841;50.252;18.688;2022-09-09T03:15:06;15.20;99.90
36924;DHT22;22841;50.252;18.688;2022-09-09T03:17:32;15.10;99.90
36924;DHT22;22841;50.252;18.688;2022-09-09T03:19:58;15.10;99.90
36924;DHT22;22841;50.252;18.688;2022-09-09T03:22:25;15.10;99.90
36924;DHT22;22841;50.252;18.688;2022-09-09T03:24:51;15.10;99.90
36924;DHT22;22841;50.252;18.688;2022-09-09T03:27:18;15.10;99.90
36924;DHT22;22841;50.252;18.688;2022-09-09T03:29:46;15.20;99.90
36924;DHT22;22841;50.252;18.688;2022-09-09T03:32:12;15.10;99.90
36924;DHT22;22841;50.252;18.688;2022-09-09T03:34:38;15.10;99.90
36924;DHT22;22841;50.252;18.688;2022-09-09T03:37:07;15.10;99.90
36924;DHT22;22841;50.252;18.688;2022-09-09T03:39:34;14.90;99.90
36924;DHT22;22841;50.252;18.688;2022-09-09T03:42:00;14.80;99.90
36924;DHT22;22841;50.252;18.688;2022-09-09T03:44:30;14.90;99.90
36924;DHT22;22841;50.252;18.688;2022-09-09T03:46:56;14.90;99.90
36924;DHT22;22841;50.252;18.688;2022-09-09T03:49:27;14.90;99.90
36924;DHT22;22841;50.252;18.688;2022-09-09T03:51:57;14.80;99.90
36924;DHT22;22841;50.252;18.688;2022-09-09T03:54:25;14.70;99.90
36924;DHT22;22841;50.252;18.688;2022-09-09T03:56:51;14.80;99.90
36924;DHT22;22841;50.252;18.688;2022-09-09T03:59:17;14.70;99.90
36924;DHT22;22841;50.252;18.688;2022-09-09T04:01:43;14.70;99.90
36924;DHT22;22841;50.252;18.688;2022-09-09T04:04:10;14.70;99.90
36924;DHT22;22841;50.252;18.688;2022-09-09T04:06:37;14.70;99.90
36924;DHT22;22841;50.252;18.688;2022-09-09T04:09:04;14.80;99.90
36924;DHT22;22841;50.252;18.688;2022-09-09T04:11:30;14.80;99.90
36924;DHT22;22841;50.252;18.688;2022-09-09T04:13:56;14.80;99.90
36924;DHT22;22841;50.252;18.688;2022-09-09T04:16:22;14.80;99.90
36924;DHT22;22841;50.252;18.688;2022-09-09T04:18:48;14.80;99.90
36924;DHT22;22841;50.252;18.688;2022-09-09T04:21:16;14.80;99.90
36924;DHT22;22841;50.252;18.688;2022-09-09T04:23:43;14.70;99.90
36924;DHT22;22841;50.252;18.688;2022-09-09T04:26:09;14.60;99.90
36924;DHT22;22841;50.252;18.688;2022-09-09T04:28:36;14.60;99.90
36924;DHT22;22841;50.252;18.688;2022-09-09T04:31:08;14.60;99.90
36924;DHT22;22841;50.252;18.688;2022-09-09T04:33:35;14.60;99.90
36924;DHT22;22841;50.252;18.688;2022-09-09T04:36:01;14.60;99.90
36924;DHT22;22841;50.252;18.688;2022-09-09T04:38:27;14.60;99.90
36924;DHT22;22841;50.252;18.688;2022-09-09T04:40:53;14.60;99.90
36924;DHT22;22841;50.252;18.688;2022-09-09T04:43:20;14.60;99.90
36924;DHT22;22841;50.252;18.688;2022-09-09T04:45:48;14.60;99.90
36924;DHT22;22841;50.252;18.688;2022-09-09T04:48:15;14.60;99.90
36924;DHT22;22841;50.252;18.688;2022-09-09T04:50:41;14.60;99.90
36924;DHT22;22841;50.252;18.688;2022-09-09T04:53:07;14.60;99.90
36924;DHT22;22841;50.252;18.688;2022-09-09T04:55:34;14.60;99.90
36924;DHT22;22841;50.252;18.688;2022-09-09T04:58:08;14.60;99.90
36924;DHT22;22841;50.252;18.688;2022-09-09T05:00:35;14.70;99.90
36924;DHT22;22841;50.252;18.688;2022-09-09T05:03:05;14.70;99.90
36924;DHT22;22841;50.252;18.688;2022-09-09T05:05:33;14.70;99.90
36924;DHT22;22841;50.252;18.688;2022-09-09T05:08:06;14.70;99.90
36924;DHT22;22841;50.252;18.688;2022-09-09T05:10:33;14.70;99.90
36924;DHT22;22841;50.252;18.688;2022-09-09T05:13:00;14.60;99.90
36924;DHT22;22841;50.252;18.688;2022-09-09T05:15:26;14.60;99.90
36924;DHT22;22841;50.252;18.688;2022-09-09T05:17:52;14.60;99.90
36924;DHT22;22841;50.252;18.688;2022-09-09T05:20:19;14.60;99.90
36924;DHT22;22841;50.252;18.688;2022-09-09T05:22:45;14.70;99.90
36924;DHT22;22841;50.252;18.688;2022-09-09T05:25:11;14.70;99.90
36924;DHT22;22841;50.252;18.688;2022-09-09T05:27:37;14.80;99.90
36924;DHT22;22841;50.252;18.688;2022-09-09T05:30:03;14.80;99.90
36924;DHT22;22841;50.252;18.688;2022-09-09T05:32:30;14.80;99.90
36924;DHT22;22841;50.252;18.688;2022-09-09T05:34:59;14.80;99.90
36924;DHT22;22841;50.252;18.688;2022-09-09T05:37:25;14.80;99.90
36924;DHT22;22841;50.252;18.688;2022-09-09T05:39:51;14.90;99.90
36924;DHT22;22841;50.252;18.688;2022-09-09T05:42:17;14.90;99.90
36924;DHT22;22841;50.252;18.688;2022-09-09T05:44:43;14.90;99.90
36924;DHT22;22841;50.252;18.688;2022-09-09T05:47:10;14.90;99.90
36924;DHT22;22841;50.252;18.688;2022-09-09T05:49:37;15.00;99.90
36924;DHT22;22841;50.252;18.688;2022-09-09T05:52:03;15.00;99.90
36924;DHT22;22841;50.252;18.688;2022-09-09T05:54:30;15.00;99.90
36924;DHT22;22841;50.252;18.688;2022-09-09T05:56:56;15.00;99.90
36924;DHT22;22841;50.252;18.688;2022-09-09T05:59:22;15.00;99.90
36924;DHT22;22841;50.252;18.688;2022-09-09T06:01:49;15.10;99.90
36924;DHT22;22841;50.252;18.688;2022-09-09T06:04:15;15.10;99.90
36924;DHT22;22841;50.252;18.688;2022-09-09T06:06:41;15.10;99.90
36924;DHT22;22841;50.252;18.688;2022-09-09T06:09:09;15.10;99.90
36924;DHT22;22841;50.252;18.688;2022-09-09T06:11:38;15.20;99.90
36924;DHT22;22841;50.252;18.688;2022-09-09T06:14:05;15.20;99.90
36924;DHT22;22841;50.252;18.688;2022-09-09T06:16:32;15.20;99.90
36924;DHT22;22841;50.252;18.688;2022-09-09T06:18:59;15.30;99.90
36924;DHT22;22841;50.252;18.688;2022-09-09T06:21:30;15.30;99.90
36924;DHT22;22841;50.252;18.688;2022-09-09T06:23:56;15.40;99.90
36924;DHT22;22841;50.252;18.688;2022-09-09T06:26:25;15.40;99.90
36924;DHT22;22841;50.252;18.688;2022-09-09T06:28:53;15.40;99.90
36924;DHT22;22841;50.252;18.688;2022-09-09T06:31:21;15.40;99.90
36924;DHT22;22841;50.252;18.688;2022-09-09T06:33:49;15.40;99.90
36924;DHT22;22841;50.252;18.688;2022-09-09T06:36:19;15.40;99.90
36924;DHT22;22841;50.252;18.688;2022-09-09T06:38:46;15.50;99.90
36924;DHT22;22841;50.252;18.688;2022-09-09T06:41:14;15.60;99.90
36924;DHT22;22841;50.252;18.688;2022-09-09T06:43:41;15.60;99.90
36924;DHT22;22841;50.252;18.688;2022-09-09T06:46:10;15.70;99.90
36924;DHT22;22841;50.252;18.688;2022-09-09T06:48:38;15.70;99.90
36924;DHT22;22841;50.252;18.688;2022-09-09T06:51:07;15.70;99.90
36924;DHT22;22841;50.252;18.688;2022-09-09T06:53:35;15.80;99.90
36924;DHT22;22841;50.252;18.688;2022-09-09T06:56:03;15.90;99.90
36924;DHT22;22841;50.252;18.688;2022-09-09T06:58:41;15.90;99.90
36924;DHT22;22841;50.252;18.688;2022-09-09T07:01:13;15.90;99.90
36924;DHT22;22841;50.252;18.688;2022-09-09T07:03:44;16.00;99.90
36924;DHT22;22841;50.252;18.688;2022-09-09T07:06:16;16.00;99.90
36924;DHT22;22841;50.252;18.688;2022-09-09T07:08:43;16.00;99.90
36924;DHT22;22841;50.252;18.688;2022-09-09T07:11:09;16.00;99.90
36924;DHT22;22841;50.252;18.688;2022-09-09T07:13:36;16.10;99.90
36924;DHT22;22841;50.252;18.688;2022-09-09T07:16:09;16.10;99.90
36924;DHT22;22841;50.252;18.688;2022-09-09T07:18:36;16.20;99.90
36924;DHT22;22841;50.252;18.688;2022-09-09T07:21:03;16.30;99.90
36924;DHT22;22841;50.252;18.688;2022-09-09T07:23:30;16.30;99.90
36924;DHT22;22841;50.252;18.688;2022-09-09T07:25:57;16.30;99.90
36924;DHT22;22841;50.252;18.688;2022-09-09T07:28:24;16.40;99.90
36924;DHT22;22841;50.252;18.688;2022-09-09T07:30:59;16.50;99.90
36924;DHT22;22841;50.252;18.688;2022-09-09T07:33:29;16.50;99.90
36924;DHT22;22841;50.252;18.688;2022-09-09T07:38:29;16.60;99.90
36924;DHT22;22841;50.252;18.688;2022-09-09T07:41:07;16.60;99.90
36924;DHT22;22841;50.252;18.688;2022-09-09T07:43:42;16.70;99.90
36924;DHT22;22841;50.252;18.688;2022-09-09T07:46:09;16.80;99.90
36924;DHT22;22841;50.252;18.688;2022-09-09T07:48:36;16.90;99.90
36924;DHT22;22841;50.252;18.688;2022-09-09T07:51:08;17.00;99.90
36924;DHT22;22841;50.252;18.688;2022-09-09T07:53:34;17.00;99.90
36924;DHT22;22841;50.252;18.688;2022-09-09T07:56:03;17.10;99.90
36924;DHT22;22841;50.252;18.688;2022-09-09T07:58:30;17.10;99.90
36924;DHT22;22841;50.252;18.688;2022-09-09T08:00:56;17.10;99.90
36924;DHT22;22841;50.252;18.688;2022-09-09T08:03:23;17.20;99.90
36924;DHT22;22841;50.252;18.688;2022-09-09T08:05:49;17.30;99.90
36924;DHT22;22841;50.252;18.688;2022-09-09T08:08:15;17.30;99.90
36924;DHT22;22841;50.252;18.688;2022-09-09T08:10:42;17.30;99.90
36924;DHT22;22841;50.252;18.688;2022-09-09T08:13:09;17.30;99.90
36924;DHT22;22841;50.252;18.688;2022-09-09T08:15:35;17.30;99.90
36924;DHT22;22841;50.252;18.688;2022-09-09T08:18:01;17.40;99.90
36924;DHT22;22841;50.252;18.688;2022-09-09T08:20:29;17.50;99.90
36924;DHT22;22841;50.252;18.688;2022-09-09T08:22:55;17.60;99.90
36924;DHT22;22841;50.252;18.688;2022-09-09T08:25:21;17.70;99.90
36924;DHT22;22841;50.252;18.688;2022-09-09T08:27:47;17.80;99.90
36924;DHT22;22841;50.252;18.688;2022-09-09T08:30:13;17.90;99.90
36924;DHT22;22841;50.252;18.688;2022-09-09T08:32:40;17.90;99.90
36924;DHT22;22841;50.252;18.688;2022-09-09T08:35:07;17.90;99.90
36924;DHT22;22841;50.252;18.688;2022-09-09T08:37:33;18.00;99.90
36924;DHT22;22841;50.252;18.688;2022-09-09T08:39:59;17.90;99.90
36924;DHT22;22841;50.252;18.688;2022-09-09T08:42:38;17.90;99.90
36924;DHT22;22841;50.252;18.688;2022-09-09T08:45:26;17.90;99.90
36924;DHT22;22841;50.252;18.688;2022-09-09T08:48:20;18.00;99.90
36924;DHT22;22841;50.252;18.688;2022-09-09T08:50:49;18.10;99.90
36924;DHT22;22841;50.252;18.688;2022-09-09T08:53:26;18.20;99.90
36924;DHT22;22841;50.252;18.688;2022-09-09T08:56:02;18.20;99.90
36924;DHT22;22841;50.252;18.688;2022-09-09T08:58:31;18.10;99.90
36924;DHT22;22841;50.252;18.688;2022-09-09T09:10:21;18.20;99.90
36924;DHT22;22841;50.252;18.688;2022-09-09T09:12:52;18.30;99.90
36924;DHT22;22841;50.252;18.688;2022-09-09T09:15:26;18.40;99.90
36924;DHT22;22841;50.252;18.688;2022-09-09T09:17:52;18.40;99.90
36924;DHT22;22841;50.252;18.688;2022-09-09T09:20:27;18.50;99.90
36924;DHT22;22841;50.252;18.688;2022-09-09T09:23:00;18.60;99.90
36924;DHT22;22841;50.252;18.688;2022-09-09T09:25:34;18.70;99.90
36924;DHT22;22841;50.252;18.688;2022-09-09T09:28:17;18.90;99.90
36924;DHT22;22841;50.252;18.688;2022-09-09T09:30:58;18.80;99.90
36924;DHT22;22841;50.252;18.688;2022-09-09T09:33:55;18.90;99.90
36924;DHT22;22841;50.252;18.688;2022-09-09T09:37:28;18.90;99.10
36924;DHT22;22841;50.252;18.688;2022-09-09T09:39:34;18.90;99.90
36924;DHT22;22841;50.252;18.688;2022-09-09T09:42:17;18.90;99.90
36924;DHT22;22841;50.252;18.688;2022-09-09T09:44:43;18.90;98.90
36924;DHT22;22841;50.252;18.688;2022-09-09T09:47:16;19.00;99.90
36924;DHT22;22841;50.252;18.688;2022-09-09T09:50:16;19.00;96.10
36924;DHT22;22841;50.252;18.688;2022-09-09T09:52:42;19.10;99.90
36924;DHT22;22841;50.252;18.688;2022-09-09T09:55:13;19.10;98.60
36924;DHT22;22841;50.252;18.688;2022-09-09T09:57:40;19.10;98.30
36924;DHT22;22841;50.252;18.688;2022-09-09T10:00:18;19.10;96.80
36924;DHT22;22841;50.252;18.688;2022-09-09T10:02:46;19.20;97.20
36924;DHT22;22841;50.252;18.688;2022-09-09T10:05:18;19.10;99.80
36924;DHT22;22841;50.252;18.688;2022-09-09T10:07:46;19.10;99.00
36924;DHT22;22841;50.252;18.688;2022-09-09T10:10:20;19.10;94.10
36924;DHT22;22841;50.252;18.688;2022-09-09T10:13:04;19.20;97.00
36924;DHT22;22841;50.252;18.688;2022-09-09T10:16:01;19.20;92.80
36924;DHT22;22841;50.252;18.688;2022-09-09T10:27:04;19.30;96.30
36924;DHT22;22841;50.252;18.688;2022-09-09T10:30:01;19.30;99.20
36924;DHT22;22841;50.252;18.688;2022-09-09T10:32:41;19.50;97.20
36924;DHT22;22841;50.252;18.688;2022-09-09T10:38:30;19.80;97.20
36924;DHT22;22841;50.252;18.688;2022-09-09T10:41:12;19.70;95.50
36924;DHT22;22841;50.252;18.688;2022-09-09T10:46:37;19.90;90.50
36924;DHT22;22841;50.252;18.688;2022-09-09T10:54:31;19.70;90.60
36924;DHT22;22841;50.252;18.688;2022-09-09T10:57:11;19.70;89.40
36924;DHT22;22841;50.252;18.688;2022-09-09T10:59:50;19.80;86.30
36924;DHT22;22841;50.252;18.688;2022-09-09T11:02:26;19.80;91.10
36924;DHT22;22841;50.252;18.688;2022-09-09T11:05:08;19.80;83.00
36924;DHT22;22841;50.252;18.688;2022-09-09T11:07:47;19.60;82.00
36924;DHT22;22841;50.252;18.688;2022-09-09T11:10:37;19.70;82.60
36924;DHT22;22841;50.252;18.688;2022-09-09T11:13:13;19.80;85.70
36924;DHT22;22841;50.252;18.688;2022-09-09T11:15:44;20.00;46.20
36924;DHT22;22841;50.252;18.688;2022-09-09T11:18:17;20.00;1.00
36924;DHT22;22841;50.252;18.688;2022-09-09T11:20:47;19.90;1.00
36924;DHT22;22841;50.252;18.688;2022-09-09T11:23:17;19.90;1.00
36924;DHT22;22841;50.252;18.688;2022-09-09T11:25:50;19.90;1.00
36924;DHT22;22841;50.252;18.688;2022-09-09T11:34:36;20.00;99.90
36924;DHT22;22841;50.252;18.688;2022-09-09T11:37:22;20.10;99.90
36924;DHT22;22841;50.252;18.688;2022-09-09T11:40:08;20.30;99.90
36924;DHT22;22841;50.252;18.688;2022-09-09T11:42:36;20.30;41.80
36924;DHT22;22841;50.252;18.688;2022-09-09T11:45:25;20.40;99.90
36924;DHT22;22841;50.252;18.688;2022-09-09T11:47:54;20.60;8.40
36924;DHT22;22841;50.252;18.688;2022-09-09T11:52:49;20.60;99.90
36924;DHT22;22841;50.252;18.688;2022-09-09T11:55:28;20.60;99.90
36924;DHT22;22841;50.252;18.688;2022-09-09T11:58:00;20.60;99.90
36924;DHT22;22841;50.252;18.688;2022-09-09T12:00:44;20.60;99.90
36924;DHT22;22841;50.252;18.688;2022-09-09T12:06:31;20.80;99.50
36924;DHT22;22841;50.252;18.688;2022-09-09T12:09:08;20.80;99.90
36924;DHT22;22841;50.252;18.688;2022-09-09T12:11:36;20.80;99.90
36924;DHT22;22841;50.252;18.688;2022-09-09T12:14:03;20.80;1.00
36924;DHT22;22841;50.252;18.688;2022-09-09T12:16:34;20.80;1.00
36924;DHT22;22841;50.252;18.688;2022-09-09T12:19:16;20.80;99.90
36924;DHT22;22841;50.252;18.688;2022-09-09T12:27:36;20.70;1.00
36924;DHT22;22841;50.252;18.688;2022-09-09T12:30:12;20.70;99.90
36924;DHT22;22841;50.252;18.688;2022-09-09T12:32:40;20.70;99.90
36924;DHT22;22841;50.252;18.688;2022-09-09T12:35:22;20.80;1.00
36924;DHT22;22841;50.252;18.688;2022-09-09T12:37:58;20.80;1.00
36924;DHT22;22841;50.252;18.688;2022-09-09T12:40:31;20.90;99.90
36924;DHT22;22841;50.252;18.688;2022-09-09T12:43:18;20.90;99.90
36924;DHT22;22841;50.252;18.688;2022-09-09T12:45:45;20.90;99.90
36924;DHT22;22841;50.252;18.688;2022-09-09T12:48:12;20.90;99.90
36924;DHT22;22841;50.252;18.688;2022-09-09T12:50:48;20.90;99.90
36924;DHT22;22841;50.252;18.688;2022-09-09T12:53:31;20.80;99.90
36924;DHT22;22841;50.252;18.688;2022-09-09T12:56:06;20.90;99.90
36924;DHT22;22841;50.252;18.688;2022-09-09T12:58:37;21.10;99.90
36924;DHT22;22841;50.252;18.688;2022-09-09T13:01:05;21.00;81.80
36924;DHT22;22841;50.252;18.688;2022-09-09T13:03:33;21.10;1.00
36924;DHT22;22841;50.252;18.688;2022-09-09T13:06:11;21.10;1.00
36924;DHT22;22841;50.252;18.688;2022-09-09T13:08:38;21.20;99.90
36924;DHT22;22841;50.252;18.688;2022-09-09T13:11:09;21.10;99.90
36924;DHT22;22841;50.252;18.688;2022-09-09T13:13:38;21.10;1.70
36924;DHT22;22841;50.252;18.688;2022-09-09T13:16:28;21.10;99.90
36924;DHT22;22841;50.252;18.688;2022-09-09T13:19:06;21.20;99.90
36924;DHT22;22841;50.252;18.688;2022-09-09T13:21:38;21.20;1.00
36924;DHT22;22841;50.252;18.688;2022-09-09T13:26:57;21.20;99.90
36924;DHT22;22841;50.252;18.688;2022-09-09T13:29:24;21.10;58.10
36924;DHT22;22841;50.252;18.688;2022-09-09T13:31:51;21.00;99.90
36924;DHT22;22841;50.252;18.688;2022-09-09T13:34:32;21.00;99.90
36924;DHT22;22841;50.252;18.688;2022-09-09T13:37:04;21.00;1.00
36924;DHT22;22841;50.252;18.688;2022-09-09T13:39:33;20.90;1.00
36924;DHT22;22841;50.252;18.688;2022-09-09T13:42:01;20.90;99.90
36924;DHT22;22841;50.252;18.688;2022-09-09T13:44:31;20.80;99.90
36924;DHT22;22841;50.252;18.688;2022-09-09T13:47:04;20.80;99.90
36924;DHT22;22841;50.252;18.688;2022-09-09T13:49:32;20.80;99.90
36924;DHT22;22841;50.252;18.688;2022-09-09T13:52:10;20.70;99.90
36924;DHT22;22841;50.252;18.688;2022-09-09T13:54:37;20.70;1.00
36924;DHT22;22841;50.252;18.688;2022-09-09T13:57:03;20.80;99.90
36924;DHT22;22841;50.252;18.688;2022-09-09T13:59:30;20.80;1.00
36924;DHT22;22841;50.252;18.688;2022-09-09T14:01:57;20.80;99.90
36924;DHT22;22841;50.252;18.688;2022-09-09T14:04:23;20.80;1.00
36924;DHT22;22841;50.252;18.688;2022-09-09T14:06:50;20.80;1.00
36924;DHT22;22841;50.252;18.688;2022-09-09T14:09:17;20.70;1.00
36924;DHT22;22841;50.252;18.688;2022-09-09T14:11:44;20.80;99.90
36924;DHT22;22841;50.252;18.688;2022-09-09T14:14:13;20.80;1.00
36924;DHT22;22841;50.252;18.688;2022-09-09T14:16:40;20.80;99.90
36924;DHT22;22841;50.252;18.688;2022-09-09T14:19:07;20.80;99.90
36924;DHT22;22841;50.252;18.688;2022-09-09T14:21:33;20.90;1.00
36924;DHT22;22841;50.252;18.688;2022-09-09T14:23:59;20.90;99.90
36924;DHT22;22841;50.252;18.688;2022-09-09T14:26:27;21.00;99.90
36924;DHT22;22841;50.252;18.688;2022-09-09T14:28:55;21.10;99.90
36924;DHT22;22841;50.252;18.688;2022-09-09T14:31:22;21.20;99.90
36924;DHT22;22841;50.252;18.688;2022-09-09T14:33:49;21.40;1.00
36924;DHT22;22841;50.252;18.688;2022-09-09T14:36:16;21.40;13.40
36924;DHT22;22841;50.252;18.688;2022-09-09T14:38:42;21.40;1.00
36924;DHT22;22841;50.252;18.688;2022-09-09T14:41:11;21.30;99.90
36924;DHT22;22841;50.252;18.688;2022-09-09T14:43:40;21.30;99.90
36924;DHT22;22841;50.252;18.688;2022-09-09T14:46:07;21.30;99.90
36924;DHT22;22841;50.252;18.688;2022-09-09T14:48:34;21.20;99.90
36924;DHT22;22841;50.252;18.688;2022-09-09T14:51:12;21.10;99.90
36924;DHT22;22841;50.252;18.688;2022-09-09T14:53:40;21.00;1.00
36924;DHT22;22841;50.252;18.688;2022-09-09T14:56:08;20.90;99.90
36924;DHT22;22841;50.252;18.688;2022-09-09T14:58:35;20.80;99.90
36924;DHT22;22841;50.252;18.688;2022-09-09T15:01:07;20.70;99.80
36924;DHT22;22841;50.252;18.688;2022-09-09T15:03:33;20.60;99.90
36924;DHT22;22841;50.252;18.688;2022-09-09T15:06:08;20.50;99.90
36924;DHT22;22841;50.252;18.688;2022-09-09T15:08:39;20.40;14.80
36924;DHT22;22841;50.252;18.688;2022-09-09T15:11:06;20.40;99.90
36924;DHT22;22841;50.252;18.688;2022-09-09T15:13:36;20.30;99.90
36924;DHT22;22841;50.252;18.688;2022-09-09T15:16:17;20.30;93.10
36924;DHT22;22841;50.252;18.688;2022-09-09T15:18:45;20.20;1.00
36924;DHT22;22841;50.252;18.688;2022-09-09T15:21:14;20.20;99.90
36924;DHT22;22841;50.252;18.688;2022-09-09T15:23:41;20.10;99.90
36924;DHT22;22841;50.252;18.688;2022-09-09T15:26:08;20.00;99.90
36924;DHT22;22841;50.252;18.688;2022-09-09T15:28:36;19.90;1.00
36924;DHT22;22841;50.252;18.688;2022-09-09T15:31:15;19.90;1.00
36924;DHT22;22841;50.252;18.688;2022-09-09T15:33:49;19.90;1.00
36924;DHT22;22841;50.252;18.688;2022-09-09T15:36:24;19.90;1.00
36924;DHT22;22841;50.252;18.688;2022-09-09T15:38:51;19.90;23.60
36924;DHT22;22841;50.252;18.688;2022-09-09T15:41:19;19.90;99.90
36924;DHT22;22841;50.252;18.688;2022-09-09T15:43:50;19.90;99.90
36924;DHT22;22841;50.252;18.688;2022-09-09T15:48:46;19.90;5.60
36924;DHT22;22841;50.252;18.688;2022-09-09T15:51:12;19.90;18.00
36924;DHT22;22841;50.252;18.688;2022-09-09T15:53:39;19.90;99.90
36924;DHT22;22841;50.252;18.688;2022-09-09T15:56:06;19.80;99.90
36924;DHT22;22841;50.252;18.688;2022-09-09T15:58:33;19.80;99.90
36924;DHT22;22841;50.252;18.688;2022-09-09T16:01:07;19.70;99.90
36924;DHT22;22841;50.252;18.688;2022-09-09T16:03:37;19.60;1.00
36924;DHT22;22841;50.252;18.688;2022-09-09T16:06:04;19.50;1.00
36924;DHT22;22841;50.252;18.688;2022-09-09T16:08:38;19.40;1.00
36924;DHT22;22841;50.252;18.688;2022-09-09T16:13:36;19.30;1.00
36924;DHT22;22841;50.252;18.688;2022-09-09T16:16:04;19.20;1.00
36924;DHT22;22841;50.252;18.688;2022-09-09T16:18:37;19.20;16.00
36924;DHT22;22841;50.252;18.688;2022-09-09T16:21:04;19.10;35.00
36924;DHT22;22841;50.252;18.688;2022-09-09T16:23:32;19.00;26.20
36924;DHT22;22841;50.252;18.688;2022-09-09T16:25:58;19.00;32.50
36924;DHT22;22841;50.252;18.688;2022-09-09T16:28:24;19.00;38.20
36924;DHT22;22841;50.252;18.688;2022-09-09T16:30:52;19.00;55.40
36924;DHT22;22841;50.252;18.688;2022-09-09T16:33:18;18.80;69.80
36924;DHT22;22841;50.252;18.688;2022-09-09T16:35:44;18.80;70.20
36924;DHT22;22841;50.252;18.688;2022-09-09T16:38:10;18.70;63.30
36924;DHT22;22841;50.252;18.688;2022-09-09T16:40:37;18.60;44.50
36924;DHT22;22841;50.252;18.688;2022-09-09T16:43:04;18.60;40.40
36924;DHT22;22841;50.252;18.688;2022-09-09T16:45:31;18.50;56.20
36924;DHT22;22841;50.252;18.688;2022-09-09T16:47:59;18.50;66.30
36924;DHT22;22841;50.252;18.688;2022-09-09T16:50:26;18.40;77.10
36924;DHT22;22841;50.252;18.688;2022-09-09T16:52:52;18.40;87.70
36924;DHT22;22841;50.252;18.688;2022-09-09T16:55:19;18.30;87.40
36924;DHT22;22841;50.252;18.688;2022-09-09T16:57:46;18.20;90.70
36924;DHT22;22841;50.252;18.688;2022-09-09T17:00:15;18.10;92.70
36924;DHT22;22841;50.252;18.688;2022-09-09T17:02:43;18.10;92.00
36924;DHT22;22841;50.252;18.688;2022-09-09T17:05:09;18.00;91.30
36924;DHT22;22841;50.252;18.688;2022-09-09T17:07:35;18.00;91.30
36924;DHT22;22841;50.252;18.688;2022-09-09T17:10:02;17.90;90.20
36924;DHT22;22841;50.252;18.688;2022-09-09T17:12:28;17.90;91.60
36924;DHT22;22841;50.252;18.688;2022-09-09T17:14:54;17.90;95.60
36924;DHT22;22841;50.252;18.688;2022-09-09T17:17:22;17.80;97.60